Time;durP1;ratioP1;P1;durP2;ratioP2;P2;SDS_P1;SDS_P2;PMS_P1;PMS_P2;Temp;Humidity;BMP_temperature;BMP_pressure;BME280_temperature;BME280_humidity;BME280_pressure;Samples;Min_cycle;Max_cycle;Signal;HPM_P1;HPM_P2
2023/05/04 00:02:21;;;;;;;163.00;11.80;;;;;;;;;;4979584;28;20041;-56
2023/05/04 00:04:47;;;;;;;149.35;11.48;;;;;;;;;;4981240;28;20022;-57
2023/05/04 00:07:12;;;;;;;178.13;12.40;;;;;;;;;;4979352;28;20397;-54
2023/05/04 00:09:37;;;;;;;161.83;10.80;;;;;;;;;;4983281;28;20140;-55
2023/05/04 00:12:03;;;;;;;161.73;11.13;;;;;;;;;;4979128;28;20295;-56
2023/05/04 00:14:28;;;;;;;150.75;10.88;;;;;;;;;;4978465;28;20095;-55
2023/05/04 00:16:53;;;;;;;100.00;10.00;;;;;;;;;;4978040;28;20303;-55
2023/05/04 00:19:18;;;;;;;106.43;9.30;;;;;;;;;;4977776;28;20061;-56
2023/05/04 00:21:44;;;;;;;112.05;9.05;;;;;;;;;;4981050;28;20655;-55
2023/05/04 00:24:09;;;;;;;110.13;9.30;;;;;;;;;;4981635;28;20018;-57
2023/05/04 00:26:34;;;;;;;149.52;10.93;;;;;;;;;;4982191;28;20090;-56
2023/05/04 00:29:00;;;;;;;146.63;10.48;;;;;;;;;;4984416;28;20025;-58
2023/05/04 00:31:25;;;;;;;208.65;13.23;;;;;;;;;;4982100;28;20089;-55
2023/05/04 00:33:50;;;;;;;200.57;12.63;;;;;;;;;;4978544;28;20034;-55
2023/05/04 00:36:16;;;;;;;163.13;11.35;;;;;;;;;;4980097;28;20299;-55
2023/05/04 00:38:48;;;;;;;142.48;10.18;;;;;;;;;;4983033;28;20026;-57
2023/05/04 00:41:13;;;;;;;159.35;11.18;;;;;;;;;;4988969;28;20026;-57
2023/05/04 00:43:39;;;;;;;160.57;11.90;;;;;;;;;;4983769;28;20162;-58
2023/05/04 00:46:04;;;;;;;135.33;10.43;;;;;;;;;;4981745;28;20788;-57
2023/05/04 00:48:29;;;;;;;107.90;9.68;;;;;;;;;;4984358;28;20258;-56
2023/05/04 00:50:55;;;;;;;113.70;9.55;;;;;;;;;;4984334;28;20046;-58
2023/05/04 00:53:20;;;;;;;90.00;8.63;;;;;;;;;;4980938;28;20221;-57
2023/05/04 00:55:45;;;;;;;127.90;10.73;;;;;;;;;;4983270;28;20216;-55
2023/05/04 00:58:11;;;;;;;152.77;11.15;;;;;;;;;;4985865;28;20065;-55
2023/05/04 01:00:36;;;;;;;150.57;11.27;;;;;;;;;;4981005;28;20042;-57
2023/05/04 01:03:02;;;;;;;156.60;11.48;;;;;;;;;;4981322;28;20078;-55
2023/05/04 01:05:33;;;;;;;160.10;11.73;;;;;;;;;;4982767;28;20113;-55
2023/05/04 01:08:01;;;;;;;165.18;11.57;;;;;;;;;;4983480;28;20498;-56
2023/05/04 01:10:32;;;;;;;157.95;10.52;;;;;;;;;;4983708;28;20046;-58
2023/05/04 01:13:07;;;;;;;151.98;10.82;;;;;;;;;;4983083;28;20022;-57
2023/05/04 01:15:33;;;;;;;112.68;10.18;;;;;;;;;;4984095;28;20034;-55
2023/05/04 01:17:58;;;;;;;110.07;10.02;;;;;;;;;;4981698;28;20018;-56
2023/05/04 01:20:23;;;;;;;146.05;10.90;;;;;;;;;;4984425;28;20744;-57
2023/05/04 01:22:48;;;;;;;160.27;11.88;;;;;;;;;;4983748;28;20020;-56
2023/05/04 01:25:15;;;;;;;146.43;10.02;;;;;;;;;;4983549;28;20520;-58
2023/05/04 01:27:43;;;;;;;161.85;11.95;;;;;;;;;;4982790;28;20028;-57
2023/05/04 01:30:11;;;;;;;164.43;11.45;;;;;;;;;;4983788;28;20026;-57
2023/05/04 01:32:37;;;;;;;167.32;12.60;;;;;;;;;;4980099;28;20057;-57
2023/05/04 01:35:03;;;;;;;157.18;11.70;;;;;;;;;;4983314;28;20075;-57
2023/05/04 01:37:28;;;;;;;125.32;9.93;;;;;;;;;;4982792;28;20038;-57
2023/05/04 01:39:53;;;;;;;109.95;9.77;;;;;;;;;;4988517;28;20028;-58
2023/05/04 01:42:18;;;;;;;98.40;9.73;;;;;;;;;;4979329;28;20064;-57
2023/05/04 01:44:44;;;;;;;126.90;10.75;;;;;;;;;;4982043;28;20264;-57
2023/05/04 01:47:09;;;;;;;127.07;10.43;;;;;;;;;;4980556;28;20038;-58
2023/05/04 01:49:34;;;;;;;113.47;10.05;;;;;;;;;;4982751;28;20619;-57
2023/05/04 01:51:59;;;;;;;145.93;11.05;;;;;;;;;;4979260;28;20050;-57
2023/05/04 01:54:24;;;;;;;170.93;11.77;;;;;;;;;;4983827;28;20055;-57
2023/05/04 01:56:50;;;;;;;142.23;11.27;;;;;;;;;;4984203;28;20124;-56
2023/05/04 01:59:15;;;;;;;160.35;12.00;;;;;;;;;;4982538;28;20567;-58
2023/05/04 02:01:41;;;;;;;148.65;11.65;;;;;;;;;;4978819;28;20031;-55
2023/05/04 02:04:06;;;;;;;158.70;12.02;;;;;;;;;;4973057;28;20030;-56
2023/05/04 02:06:32;;;;;;;113.90;10.25;;;;;;;;;;4983851;28;20058;-56
2023/05/04 02:08:57;;;;;;;108.18;10.25;;;;;;;;;;4982352;28;20057;-57
2023/05/04 02:11:22;;;;;;;114.20;10.60;;;;;;;;;;4983563;28;20681;-58
2023/05/04 02:13:48;;;;;;;182.40;12.05;;;;;;;;;;4978736;28;20510;-57
2023/05/04 02:16:13;;;;;;;168.30;12.23;;;;;;;;;;4980105;28;20041;-57
2023/05/04 02:18:38;;;;;;;131.90;10.80;;;;;;;;;;4981242;28;20370;-58
2023/05/04 02:21:03;;;;;;;152.40;10.93;;;;;;;;;;4987176;28;20038;-56
2023/05/04 02:23:28;;;;;;;162.00;11.33;;;;;;;;;;4985115;28;20073;-56
2023/05/04 02:25:55;;;;;;;157.70;11.57;;;;;;;;;;4983644;28;20373;-56
2023/05/04 02:28:20;;;;;;;152.52;11.13;;;;;;;;;;4980833;28;20676;-56
2023/05/04 02:30:45;;;;;;;161.82;11.30;;;;;;;;;;4980788;28;20095;-57
2023/05/04 02:33:10;;;;;;;118.22;10.90;;;;;;;;;;4983376;28;20036;-57
2023/05/04 02:35:36;;;;;;;104.55;9.88;;;;;;;;;;4982126;28;20035;-57
2023/05/04 02:38:02;;;;;;;111.85;10.18;;;;;;;;;;4983071;28;20608;-56
2023/05/04 02:40:27;;;;;;;114.72;9.93;;;;;;;;;;4982533;28;20034;-58
2023/05/04 02:42:52;;;;;;;145.32;11.40;;;;;;;;;;4980534;28;20107;-56
2023/05/04 02:45:18;;;;;;;194.55;13.75;;;;;;;;;;4980367;28;20130;-56
2023/05/04 02:47:43;;;;;;;154.32;11.10;;;;;;;;;;4978684;28;20034;-56
2023/05/04 02:50:09;;;;;;;160.57;11.87;;;;;;;;;;4981747;28;20052;-58
2023/05/04 02:52:34;;;;;;;158.50;11.73;;;;;;;;;;4981644;28;20277;-56
2023/05/04 02:55:00;;;;;;;121.63;10.75;;;;;;;;;;4980012;28;20042;-55
2023/05/04 02:57:25;;;;;;;123.47;10.90;;;;;;;;;;4982864;28;20042;-56
2023/05/04 02:59:50;;;;;;;114.25;10.35;;;;;;;;;;4981552;28;20034;-55
2023/05/04 03:02:15;;;;;;;150.00;11.93;;;;;;;;;;4977981;28;20677;-57
2023/05/04 03:04:41;;;;;;;118.10;10.68;;;;;;;;;;4979958;28;20022;-55
2023/05/04 03:07:06;;;;;;;117.15;9.90;;;;;;;;;;4982390;28;20511;-56
2023/05/04 03:09:32;;;;;;;138.35;11.43;;;;;;;;;;4987611;28;20057;-57
2023/05/04 03:11:57;;;;;;;169.20;12.00;;;;;;;;;;4978711;28;20140;-59
2023/05/04 03:14:22;;;;;;;164.48;11.18;;;;;;;;;;4980011;28;20258;-58
2023/05/04 03:16:47;;;;;;;143.55;11.48;;;;;;;;;;4982398;28;20074;-57
2023/05/04 03:19:13;;;;;;;135.10;10.65;;;;;;;;;;4981496;28;20034;-57
2023/05/04 03:21:38;;;;;;;123.28;10.15;;;;;;;;;;4978080;28;20042;-56
2023/05/04 03:24:03;;;;;;;123.80;10.03;;;;;;;;;;4980351;28;20542;-55
2023/05/04 03:26:29;;;;;;;104.97;8.57;;;;;;;;;;4981715;28;21235;-56
2023/05/04 03:28:54;;;;;;;122.97;10.32;;;;;;;;;;4980636;28;20060;-58
2023/05/04 03:31:19;;;;;;;160.98;11.63;;;;;;;;;;4977827;28;20832;-57
2023/05/04 03:33:44;;;;;;;194.23;12.68;;;;;;;;;;4980092;28;20148;-57
2023/05/04 03:36:10;;;;;;;166.95;11.93;;;;;;;;;;4983423;28;20951;-58
2023/05/04 03:38:35;;;;;;;155.05;10.57;;;;;;;;;;4982528;28;20034;-55
2023/05/04 03:41:01;;;;;;;151.18;11.90;;;;;;;;;;4980914;28;20517;-56
2023/05/04 03:43:26;;;;;;;161.45;11.27;;;;;;;;;;4979476;28;20353;-56
2023/05/04 03:45:51;;;;;;;103.23;9.40;;;;;;;;;;4978692;28;20061;-55
2023/05/04 03:48:16;;;;;;;116.73;10.50;;;;;;;;;;4982709;28;20267;-56
2023/05/04 03:50:42;;;;;;;151.75;11.27;;;;;;;;;;4980730;28;20260;-55
2023/05/04 03:53:07;;;;;;;101.43;9.03;;;;;;;;;;4983732;28;20152;-56
2023/05/04 03:55:32;;;;;;;118.28;10.15;;;;;;;;;;4977957;28;20265;-57
2023/05/04 03:57:57;;;;;;;145.77;10.70;;;;;;;;;;4981627;28;20058;-58
2023/05/04 04:00:23;;;;;;;162.15;12.07;;;;;;;;;;4981816;28;20270;-56
2023/05/04 04:02:48;;;;;;;187.68;12.85;;;;;;;;;;4978273;28;20123;-56
2023/05/04 04:05:13;;;;;;;160.77;11.55;;;;;;;;;;4979437;28;20033;-56
2023/05/04 04:07:38;;;;;;;149.75;11.07;;;;;;;;;;4980437;28;20026;-56
2023/05/04 04:10:04;;;;;;;110.43;10.13;;;;;;;;;;4982383;28;20141;-55
2023/05/04 04:12:29;;;;;;;91.57;9.18;;;;;;;;;;4983196;28;20090;-56
2023/05/04 04:14:54;;;;;;;121.10;10.23;;;;;;;;;;4982629;28;20022;-56
2023/05/04 04:17:20;;;;;;;145.18;11.45;;;;;;;;;;4980554;28;20049;-57
2023/05/04 04:19:45;;;;;;;125.43;10.02;;;;;;;;;;4988237;28;20028;-57
2023/05/04 04:22:10;;;;;;;144.98;11.32;;;;;;;;;;4982593;28;20604;-58
2023/05/04 04:24:35;;;;;;;137.37;11.03;;;;;;;;;;4983343;28;20030;-57
2023/05/04 04:27:01;;;;;;;132.27;10.67;;;;;;;;;;4982011;28;20327;-57
2023/05/04 04:29:26;;;;;;;192.27;12.33;;;;;;;;;;4981381;28;20358;-57
2023/05/04 04:31:51;;;;;;;134.00;10.87;;;;;;;;;;4980136;28;20389;-57
2023/05/04 04:34:17;;;;;;;151.32;10.73;;;;;;;;;;4983615;28;20378;-57
2023/05/04 04:36:42;;;;;;;113.50;10.70;;;;;;;;;;4985437;28;20282;-57
2023/05/04 04:39:08;;;;;;;97.20;9.45;;;;;;;;;;4984419;28;20871;-56
2023/05/04 04:41:33;;;;;;;115.63;9.40;;;;;;;;;;4986845;28;20043;-58
2023/05/04 04:43:58;;;;;;;118.00;9.90;;;;;;;;;;4983937;28;20438;-58
2023/05/04 04:46:24;;;;;;;168.77;11.57;;;;;;;;;;4982391;28;20266;-55
2023/05/04 04:48:51;;;;;;;149.90;10.43;;;;;;;;;;4986327;28;20044;-56
2023/05/04 04:51:16;;;;;;;146.23;11.20;;;;;;;;;;4986147;28;20454;-56
2023/05/04 04:53:42;;;;;;;207.70;12.57;;;;;;;;;;4964413;28;20038;-55
2023/05/04 04:56:08;;;;;;;137.57;10.33;;;;;;;;;;4984153;28;20102;-58
2023/05/04 04:58:34;;;;;;;121.50;9.77;;;;;;;;;;4984453;28;20678;-56
2023/05/04 05:00:59;;;;;;;141.02;10.57;;;;;;;;;;4984472;28;20031;-56
2023/05/04 05:03:24;;;;;;;115.22;9.38;;;;;;;;;;4987467;28;20026;-55
2023/05/04 05:05:50;;;;;;;120.57;9.35;;;;;;;;;;4982318;28;20034;-55
2023/05/04 05:08:15;;;;;;;106.20;9.32;;;;;;;;;;4987469;28;20015;-56
2023/05/04 05:10:41;;;;;;;122.13;9.03;;;;;;;;;;4981722;28;20039;-57
2023/05/04 05:13:06;;;;;;;127.80;10.10;;;;;;;;;;4983623;28;20273;-55
2023/05/04 05:15:31;;;;;;;109.65;9.73;;;;;;;;;;4978359;28;20130;-58
2023/05/04 05:17:57;;;;;;;138.10;10.10;;;;;;;;;;4984760;28;20026;-55
2023/05/04 05:20:22;;;;;;;165.93;11.63;;;;;;;;;;4982627;28;20372;-55
2023/05/04 05:22:47;;;;;;;121.85;9.90;;;;;;;;;;4982510;28;20367;-59
2023/05/04 05:25:13;;;;;;;141.55;10.10;;;;;;;;;;4983226;28;20022;-55
2023/05/04 05:27:38;;;;;;;102.85;8.98;;;;;;;;;;4983034;28;20110;-57
2023/05/04 05:30:04;;;;;;;88.70;8.10;;;;;;;;;;4983756;28;20022;-55
2023/05/04 05:32:30;;;;;;;109.75;9.45;;;;;;;;;;4983095;28;20050;-55
2023/05/04 05:34:56;;;;;;;90.97;8.68;;;;;;;;;;4981968;28;20045;-57
2023/05/04 05:37:21;;;;;;;105.82;9.27;;;;;;;;;;4972616;28;20913;-59
2023/05/04 05:39:46;;;;;;;104.60;9.15;;;;;;;;;;4982897;28;20800;-59
2023/05/04 05:42:12;;;;;;;127.25;10.02;;;;;;;;;;4984474;28;20037;-59
2023/05/04 05:44:37;;;;;;;140.83;10.37;;;;;;;;;;4981279;28;20014;-59
2023/05/04 05:47:03;;;;;;;98.72;8.85;;;;;;;;;;4983877;28;20342;-59
2023/05/04 05:49:28;;;;;;;120.80;9.65;;;;;;;;;;4980415;28;20041;-60
2023/05/04 05:51:53;;;;;;;142.20;10.40;;;;;;;;;;4985099;28;20042;-58
2023/05/04 05:54:20;;;;;;;112.47;9.00;;;;;;;;;;4982752;28;20044;-58
2023/05/04 05:56:45;;;;;;;89.82;8.45;;;;;;;;;;4984025;28;20899;-58
2023/05/04 05:59:11;;;;;;;97.72;9.07;;;;;;;;;;4982101;28;20022;-58
2023/05/04 06:01:36;;;;;;;75.90;7.40;;;;;;;;;;4982208;28;20038;-59
2023/05/04 06:04:01;;;;;;;112.45;9.30;;;;;;;;;;4979946;28;20273;-60
2023/05/04 06:06:27;;;;;;;88.28;7.95;;;;;;;;;;4980513;28;20063;-59
2023/05/04 06:08:52;;;;;;;104.30;8.90;;;;;;;;;;4981420;28;20018;-61
2023/05/04 06:11:17;;;;;;;127.55;9.98;;;;;;;;;;4979288;28;20266;-61
2023/05/04 06:13:42;;;;;;;159.07;11.20;;;;;;;;;;4981692;28;20066;-59
2023/05/04 06:16:08;;;;;;;117.27;9.60;;;;;;;;;;4979406;28;20115;-57
2023/05/04 06:18:33;;;;;;;92.22;8.25;;;;;;;;;;4980965;28;20375;-61
2023/05/04 06:20:59;;;;;;;92.87;8.53;;;;;;;;;;4979370;28;20095;-59
2023/05/04 06:23:26;;;;;;;106.50;9.05;;;;;;;;;;4980301;28;20026;-59
2023/05/04 06:25:51;;;;;;;97.53;8.52;;;;;;;;;;4982103;28;20070;-57
2023/05/04 06:28:16;;;;;;;83.73;7.77;;;;;;;;;;4982624;28;20110;-58
2023/05/04 06:30:43;;;;;;;118.87;9.60;;;;;;;;;;4980601;28;20038;-59
2023/05/04 06:33:08;;;;;;;69.18;7.32;;;;;;;;;;4981067;28;20326;-59
2023/05/04 06:35:34;;;;;;;87.97;8.03;;;;;;;;;;4980544;28;20254;-59
2023/05/04 06:37:59;;;;;;;111.28;9.55;;;;;;;;;;4981179;28;20018;-58
2023/05/04 06:40:25;;;;;;;108.13;9.15;;;;;;;;;;4979922;28;20038;-59
2023/05/04 06:42:50;;;;;;;115.38;9.35;;;;;;;;;;4961486;28;20113;-58
2023/05/04 06:45:15;;;;;;;148.05;11.43;;;;;;;;;;4977887;28;20113;-57
2023/05/04 06:47:41;;;;;;;112.22;9.25;;;;;;;;;;4979403;28;20052;-60
2023/05/04 06:50:09;;;;;;;97.05;8.90;;;;;;;;;;4980729;28;20023;-57
2023/05/04 06:52:37;;;;;;;76.15;7.57;;;;;;;;;;4980796;28;20030;-57
2023/05/04 06:55:02;;;;;;;90.55;8.27;;;;;;;;;;4980744;28;20113;-57
2023/05/04 06:57:28;;;;;;;71.75;7.18;;;;;;;;;;4982751;28;20034;-60
2023/05/04 06:59:53;;;;;;;77.50;7.38;;;;;;;;;;4981100;28;20049;-60
2023/05/04 07:02:19;;;;;;;100.15;8.60;;;;;;;;;;4977512;28;20034;-59
2023/05/04 07:04:44;;;;;;;77.20;7.55;;;;;;;;;;4978588;28;21101;-58
2023/05/04 07:07:09;;;;;;;85.78;8.43;;;;;;;;;;4981419;28;20061;-59
2023/05/04 07:09:34;;;;;;;88.57;8.20;;;;;;;;;;4981304;28;20026;-59
2023/05/04 07:12:00;;;;;;;94.15;8.82;;;;;;;;;;4979743;28;20284;-59
2023/05/04 07:14:25;;;;;;;110.07;9.63;;;;;;;;;;4980054;28;20105;-59
2023/05/04 07:16:50;;;;;;;96.57;8.87;;;;;;;;;;4978090;28;20474;-60
2023/05/04 07:19:16;;;;;;;89.28;8.32;;;;;;;;;;4978311;28;20050;-58
2023/05/04 07:21:41;;;;;;;77.60;7.88;;;;;;;;;;4979520;28;20034;-59
2023/05/04 07:24:07;;;;;;;73.83;7.30;;;;;;;;;;4979794;28;20036;-59
2023/05/04 07:26:32;;;;;;;77.25;7.65;;;;;;;;;;4979867;28;20261;-58
2023/05/04 07:28:57;;;;;;;61.13;6.32;;;;;;;;;;4981606;28;20037;-58
2023/05/04 07:31:22;;;;;;;108.47;9.30;;;;;;;;;;4978535;28;20094;-57
2023/05/04 07:33:48;;;;;;;140.30;11.20;;;;;;;;;;4980193;28;20120;-59
2023/05/04 07:36:13;;;;;;;96.30;8.83;;;;;;;;;;4981198;28;20262;-58
2023/05/04 07:38:39;;;;;;;79.70;7.95;;;;;;;;;;4983081;28;20022;-57
2023/05/04 07:41:04;;;;;;;100.55;9.15;;;;;;;;;;4978437;28;20065;-57
2023/05/04 07:43:29;;;;;;;80.78;7.78;;;;;;;;;;4981718;28;20102;-58
2023/05/04 07:45:54;;;;;;;75.83;7.43;;;;;;;;;;4976192;28;20650;-57
2023/05/04 07:48:20;;;;;;;77.47;7.70;;;;;;;;;;4979692;28;20392;-57
2023/05/04 07:50:45;;;;;;;82.23;8.17;;;;;;;;;;4980740;28;20265;-58
2023/05/04 07:53:11;;;;;;;74.35;7.20;;;;;;;;;;4984499;28;20314;-59
2023/05/04 07:55:37;;;;;;;68.47;6.97;;;;;;;;;;4983877;28;20034;-57
2023/05/04 07:58:02;;;;;;;77.68;7.75;;;;;;;;;;4983989;28;20026;-59
2023/05/04 08:00:27;;;;;;;123.73;10.27;;;;;;;;;;4981206;28;20168;-59
2023/05/04 08:02:53;;;;;;;122.07;9.05;;;;;;;;;;4981756;28;20402;-59
2023/05/04 08:05:18;;;;;;;107.80;8.80;;;;;;;;;;4982915;28;20029;-60
2023/05/04 08:07:43;;;;;;;114.60;9.03;;;;;;;;;;4983908;28;20088;-59
2023/05/04 08:10:09;;;;;;;101.83;8.43;;;;;;;;;;4984302;28;20088;-57
2023/05/04 08:12:34;;;;;;;96.53;8.23;;;;;;;;;;4982776;28;20022;-58
2023/05/04 08:14:59;;;;;;;68.68;6.93;;;;;;;;;;4984873;28;20026;-57
2023/05/04 08:17:24;;;;;;;109.20;9.32;;;;;;;;;;4982413;28;20228;-57
2023/05/04 08:19:50;;;;;;;98.93;8.37;;;;;;;;;;4984101;28;20065;-58
2023/05/04 08:22:15;;;;;;;97.17;8.63;;;;;;;;;;4984113;28;20054;-60
2023/05/04 08:24:40;;;;;;;109.83;8.93;;;;;;;;;;4984305;28;20057;-59
2023/05/04 08:27:05;;;;;;;108.05;9.20;;;;;;;;;;4982832;28;20257;-57
2023/05/04 08:29:31;;;;;;;129.50;10.07;;;;;;;;;;4985130;28;20026;-58
2023/05/04 08:31:57;;;;;;;120.40;10.00;;;;;;;;;;4979983;28;20034;-57
2023/05/04 08:34:22;;;;;;;100.38;8.73;;;;;;;;;;4981446;28;20034;-60
2023/05/04 08:36:48;;;;;;;96.13;8.80;;;;;;;;;;4984099;28;20035;-60
2023/05/04 08:39:13;;;;;;;99.73;9.03;;;;;;;;;;4984124;28;20444;-58
2023/05/04 08:41:42;;;;;;;68.90;7.75;;;;;;;;;;4982112;28;20268;-58
2023/05/04 08:44:09;;;;;;;82.28;8.63;;;;;;;;;;4982648;28;20043;-58
2023/05/04 08:46:35;;;;;;;87.10;8.32;;;;;;;;;;4981262;28;20030;-59
2023/05/04 08:49:01;;;;;;;76.90;7.85;;;;;;;;;;4983317;28;20033;-60
2023/05/04 08:51:26;;;;;;;95.13;8.77;;;;;;;;;;4981404;28;20699;-59
2023/05/04 08:53:52;;;;;;;132.07;10.82;;;;;;;;;;4981247;28;20044;-58
2023/05/04 08:56:18;;;;;;;102.35;8.90;;;;;;;;;;4982731;28;20539;-58
2023/05/04 08:58:50;;;;;;;120.82;9.88;;;;;;;;;;4981055;28;20030;-60
2023/05/04 09:01:16;;;;;;;132.30;10.25;;;;;;;;;;4981424;28;20050;-57
2023/05/04 09:03:43;;;;;;;146.02;11.18;;;;;;;;;;4983274;28;20349;-58
2023/05/04 09:06:10;;;;;;;109.78;9.30;;;;;;;;;;4980270;28;20037;-59
2023/05/04 09:08:35;;;;;;;101.88;9.27;;;;;;;;;;4983997;28;20041;-58
2023/05/04 09:11:01;;;;;;;114.47;9.23;;;;;;;;;;4982460;28;20049;-59
2023/05/04 09:13:26;;;;;;;108.15;9.15;;;;;;;;;;4982907;28;20488;-58
2023/05/04 09:15:55;;;;;;;136.40;10.57;;;;;;;;;;4980641;28;20059;-61
2023/05/04 09:18:22;;;;;;;122.68;9.63;;;;;;;;;;4982825;28;20041;-58
2023/05/04 09:20:47;;;;;;;134.93;10.23;;;;;;;;;;4981724;28;20453;-60
2023/05/04 09:23:13;;;;;;;88.03;7.80;;;;;;;;;;4984459;28;20023;-57
2023/05/04 09:25:49;;;;;;;95.70;8.40;;;;;;;;;;4981910;28;20281;-59
2023/05/04 09:28:14;;;;;;;125.18;10.20;;;;;;;;;;4982013;28;20459;-60
2023/05/04 09:30:40;;;;;;;115.90;9.30;;;;;;;;;;4982346;28;20583;-58
2023/05/04 09:33:05;;;;;;;85.30;8.07;;;;;;;;;;4979986;28;20138;-58
2023/05/04 09:35:31;;;;;;;86.07;7.88;;;;;;;;;;4981721;28;20037;-58
2023/05/04 09:37:56;;;;;;;81.40;7.10;;;;;;;;;;4981500;28;20026;-60
2023/05/04 09:40:41;;;;;;;88.43;8.25;;;;;;;;;;4980765;28;20903;-60
2023/05/04 09:43:09;;;;;;;120.60;9.55;;;;;;;;;;4982155;28;20022;-60
2023/05/04 09:45:45;;;;;;;127.57;10.13;;;;;;;;;;4979550;28;20053;-60
2023/05/04 09:48:14;;;;;;;107.25;8.95;;;;;;;;;;4978944;28;20018;-58
2023/05/04 09:50:46;;;;;;;149.43;10.68;;;;;;;;;;4979672;28;20030;-59
2023/05/04 09:53:12;;;;;;;67.43;6.63;;;;;;;;;;4981418;28;20200;-58
2023/05/04 09:55:41;;;;;;;106.05;9.18;;;;;;;;;;4981013;28;20034;-59
2023/05/04 09:58:07;;;;;;;80.07;7.40;;;;;;;;;;4982067;28;20015;-59
2023/05/04 10:00:34;;;;;;;107.50;8.50;;;;;;;;;;4981619;28;20037;-58
2023/05/04 10:03:02;;;;;;;107.25;8.43;;;;;;;;;;4980512;28;20030;-60
2023/05/04 10:05:28;;;;;;;120.88;9.07;;;;;;;;;;4980806;28;20038;-59
2023/05/04 10:07:53;;;;;;;149.90;10.25;;;;;;;;;;4980471;28;20018;-58
2023/05/04 10:10:18;;;;;;;130.90;9.48;;;;;;;;;;4980355;28;20030;-59
2023/05/04 10:12:44;;;;;;;111.97;8.20;;;;;;;;;;4981479;28;20152;-60
2023/05/04 10:15:09;;;;;;;134.85;10.35;;;;;;;;;;4980546;28;20029;-58
2023/05/04 10:17:35;;;;;;;105.75;8.77;;;;;;;;;;4981422;28;20052;-60
2023/05/04 10:20:09;;;;;;;82.88;7.35;;;;;;;;;;4984048;28;20921;-58
2023/05/04 10:22:50;;;;;;;108.70;8.68;;;;;;;;;;4980713;28;20041;-59
2023/05/04 10:25:18;;;;;;;127.65;9.35;;;;;;;;;;4978975;28;20663;-60
2023/05/04 10:27:55;;;;;;;124.03;10.07;;;;;;;;;;4982636;28;20080;-59
2023/05/04 10:30:21;;;;;;;146.48;10.52;;;;;;;;;;4982097;28;20030;-60
2023/05/04 10:32:53;;;;;;;80.57;6.72;;;;;;;;;;4978683;28;20086;-58
2023/05/04 10:35:18;;;;;;;90.38;7.38;;;;;;;;;;4982609;28;20061;-60
2023/05/04 10:37:49;;;;;;;85.93;7.57;;;;;;;;;;4983673;28;20116;-58
2023/05/04 10:40:16;;;;;;;96.57;7.60;;;;;;;;;;4981121;28;20545;-57
2023/05/04 10:42:42;;;;;;;83.30;7.30;;;;;;;;;;4983466;28;20017;-58
2023/05/04 10:45:08;;;;;;;78.93;6.95;;;;;;;;;;4980090;28;20022;-57
2023/05/04 10:47:34;;;;;;;82.15;7.28;;;;;;;;;;4977876;28;20049;-57
2023/05/04 10:50:09;;;;;;;100.20;8.43;;;;;;;;;;4979987;28;20277;-57
2023/05/04 10:52:49;;;;;;;68.90;6.75;;;;;;;;;;4981038;28;20137;-58
2023/05/04 10:55:14;;;;;;;120.50;9.00;;;;;;;;;;4980245;28;20022;-59
2023/05/04 10:57:53;;;;;;;129.05;9.95;;;;;;;;;;4981931;28;20031;-58
2023/05/04 11:00:18;;;;;;;120.68;8.90;;;;;;;;;;4979898;28;20026;-60
2023/05/04 11:02:46;;;;;;;129.80;9.40;;;;;;;;;;4979354;28;20054;-59
2023/05/04 11:05:17;;;;;;;141.18;9.95;;;;;;;;;;4979566;28;20479;-60
2023/05/04 11:07:42;;;;;;;126.25;9.38;;;;;;;;;;4981634;28;20060;-57
2023/05/04 11:10:18;;;;;;;127.07;9.48;;;;;;;;;;4980294;28;20747;-60
2023/05/04 11:12:44;;;;;;;109.13;8.48;;;;;;;;;;4980893;28;20036;-58
2023/05/04 11:15:09;;;;;;;103.18;8.48;;;;;;;;;;4980277;28;20022;-57
2023/05/04 11:17:45;;;;;;;81.40;6.97;;;;;;;;;;4979729;28;20038;-60
2023/05/04 11:20:10;;;;;;;73.47;6.55;;;;;;;;;;4981331;28;20038;-58
2023/05/04 11:22:36;;;;;;;72.47;7.20;;;;;;;;;;4982048;28;20072;-59
2023/05/04 11:25:02;;;;;;;88.28;7.50;;;;;;;;;;4981427;28;20031;-60
2023/05/04 11:27:28;;;;;;;144.70;10.40;;;;;;;;;;4965151;28;20033;-60
2023/05/04 11:29:56;;;;;;;148.70;10.27;;;;;;;;;;4980206;28;20036;-60
2023/05/04 11:32:31;;;;;;;165.93;11.43;;;;;;;;;;4976369;28;20814;-59
2023/05/04 11:34:57;;;;;;;136.77;9.43;;;;;;;;;;4974374;28;20026;-59
2023/05/04 11:37:22;;;;;;;128.25;8.90;;;;;;;;;;4980533;28;20046;-59
2023/05/04 11:39:48;;;;;;;142.50;9.83;;;;;;;;;;4980585;28;20063;-59
2023/05/04 11:42:13;;;;;;;94.13;7.55;;;;;;;;;;4980750;28;20034;-59
2023/05/04 11:44:39;;;;;;;128.57;9.07;;;;;;;;;;4980218;28;20049;-58
2023/05/04 11:47:04;;;;;;;125.85;8.90;;;;;;;;;;4979369;28;20130;-59
2023/05/04 11:49:31;;;;;;;127.65;8.85;;;;;;;;;;4979414;28;20046;-58
2023/05/04 11:52:06;;;;;;;104.97;8.10;;;;;;;;;;4979025;28;20989;-59
2023/05/04 11:54:31;;;;;;;122.95;8.38;;;;;;;;;;4979585;28;20035;-57
2023/05/04 11:56:57;;;;;;;101.40;7.80;;;;;;;;;;4979430;28;20039;-59
2023/05/04 11:59:22;;;;;;;98.70;7.85;;;;;;;;;;4980900;28;20690;-59
2023/05/04 12:01:48;;;;;;;144.15;9.75;;;;;;;;;;4977218;28;20050;-58
2023/05/04 12:04:13;;;;;;;140.23;9.45;;;;;;;;;;4977238;28;20156;-57
2023/05/04 12:06:39;;;;;;;105.68;8.57;;;;;;;;;;4981836;28;20558;-58
2023/05/04 12:09:05;;;;;;;86.93;7.18;;;;;;;;;;4979110;28;20396;-57
2023/05/04 12:11:30;;;;;;;110.50;7.53;;;;;;;;;;4977039;28;20060;-57
2023/05/04 12:14:05;;;;;;;115.07;8.25;;;;;;;;;;4978345;28;20029;-60
2023/05/04 12:16:31;;;;;;;105.18;7.63;;;;;;;;;;4978266;28;20495;-57
2023/05/04 12:19:03;;;;;;;124.93;8.48;;;;;;;;;;4979232;28;20029;-57
2023/05/04 12:21:29;;;;;;;135.32;8.93;;;;;;;;;;4978579;28;20061;-58
2023/05/04 12:23:55;;;;;;;174.05;11.50;;;;;;;;;;4975200;28;20503;-59
2023/05/04 12:26:20;;;;;;;118.50;8.13;;;;;;;;;;4980073;28;20125;-58
2023/05/04 12:28:46;;;;;;;87.47;7.35;;;;;;;;;;4979990;28;20033;-60
2023/05/04 12:31:11;;;;;;;93.78;7.00;;;;;;;;;;4977189;28;20046;-59
2023/05/04 12:33:36;;;;;;;136.65;8.93;;;;;;;;;;4978978;28;20022;-59
2023/05/04 12:36:03;;;;;;;134.13;8.88;;;;;;;;;;4978653;28;20117;-60
2023/05/04 12:38:28;;;;;;;120.07;7.82;;;;;;;;;;4983270;28;20022;-58
2023/05/04 12:40:57;;;;;;;100.20;6.93;;;;;;;;;;4982419;28;20291;-58
2023/05/04 12:43:22;;;;;;;73.32;5.63;;;;;;;;;;4984966;28;20792;-58
2023/05/04 12:45:49;;;;;;;70.53;5.53;;;;;;;;;;4980558;28;20044;-58
2023/05/04 12:48:15;;;;;;;117.93;7.15;;;;;;;;;;4983210;28;20022;-57
2023/05/04 12:50:42;;;;;;;141.38;8.63;;;;;;;;;;4982230;28;20236;-58
2023/05/04 12:53:07;;;;;;;140.57;8.77;;;;;;;;;;4982801;28;20030;-60
2023/05/04 12:55:33;;;;;;;93.75;6.78;;;;;;;;;;4981044;28;20038;-58
2023/05/04 12:57:58;;;;;;;83.77;6.27;;;;;;;;;;4985014;28;20136;-58
2023/05/04 13:00:23;;;;;;;145.45;9.07;;;;;;;;;;4982248;28;20281;-59
2023/05/04 13:02:49;;;;;;;128.43;8.15;;;;;;;;;;4983204;28;20035;-58
2023/05/04 13:05:15;;;;;;;119.63;8.20;;;;;;;;;;4969537;28;20571;-58
2023/05/04 13:07:41;;;;;;;89.97;7.07;;;;;;;;;;4983026;28;20270;-58
2023/05/04 13:10:06;;;;;;;88.20;6.20;;;;;;;;;;4981508;28;20026;-58
2023/05/04 13:12:32;;;;;;;110.93;7.30;;;;;;;;;;4971412;28;20565;-58
2023/05/04 13:14:58;;;;;;;114.25;7.45;;;;;;;;;;4982978;28;20033;-58
2023/05/04 13:17:23;;;;;;;161.20;9.25;;;;;;;;;;4980210;28;20638;-58
2023/05/04 13:19:48;;;;;;;89.50;6.03;;;;;;;;;;4981729;28;20747;-59
2023/05/04 13:22:14;;;;;;;87.03;6.10;;;;;;;;;;4983972;28;20277;-59
2023/05/04 13:24:39;;;;;;;89.28;6.18;;;;;;;;;;4983842;28;20844;-60
2023/05/04 13:27:05;;;;;;;138.90;8.38;;;;;;;;;;4982807;28;20230;-60
2023/05/04 13:29:30;;;;;;;144.27;8.45;;;;;;;;;;4981982;28;20021;-58
2023/05/04 13:31:57;;;;;;;96.07;7.00;;;;;;;;;;4981771;28;20042;-58
2023/05/04 13:34:23;;;;;;;83.93;5.93;;;;;;;;;;4983190;28;20019;-60
2023/05/04 13:36:48;;;;;;;102.47;6.93;;;;;;;;;;4981481;28;20045;-58
2023/05/04 13:39:13;;;;;;;100.20;6.80;;;;;;;;;;4980938;28;20049;-58
2023/05/04 13:41:39;;;;;;;138.33;8.00;;;;;;;;;;4981633;28;20068;-60
2023/05/04 13:44:04;;;;;;;130.73;8.00;;;;;;;;;;4980213;28;20262;-58
2023/05/04 13:46:29;;;;;;;99.30;6.32;;;;;;;;;;4980616;28;20034;-58
2023/05/04 13:48:54;;;;;;;88.97;6.00;;;;;;;;;;4982180;28;20026;-60
2023/05/04 13:51:20;;;;;;;151.68;8.60;;;;;;;;;;4981049;28;20269;-60
2023/05/04 13:53:45;;;;;;;165.70;9.52;;;;;;;;;;4980971;28;20038;-58
2023/05/04 13:56:10;;;;;;;68.63;5.40;;;;;;;;;;4982900;28;20061;-59
2023/05/04 13:58:36;;;;;;;118.43;7.38;;;;;;;;;;4982397;28;20022;-58
2023/05/04 14:01:01;;;;;;;117.35;7.32;;;;;;;;;;4981008;28;20037;-59
2023/05/04 14:03:27;;;;;;;142.63;8.30;;;;;;;;;;4980896;28;20921;-59
2023/05/04 14:05:53;;;;;;;138.38;8.15;;;;;;;;;;4980882;28;20322;-57
2023/05/04 14:08:18;;;;;;;90.27;6.00;;;;;;;;;;4983050;28;20026;-57
2023/05/04 14:10:43;;;;;;;131.77;7.77;;;;;;;;;;4980935;28;20115;-60